Latest Coastal Weather Observations for Port Augusta

IDS60701

Issued at 12:11 pm CST Tuesday 28 June 2022 (issued every 10 minutes, with the page automatically refreshed every 10 minutes)

About coastal observations | Map of coastal stations | Coastal observations for SA | Marine services | Other Formats
Station Details ID: 018201 Name: PORT AUGUSTA AERO Lat: -32.51 Lon: 137.72 Height: 13.97 m
Data from the previous 72 hours. | See also: Recent months at Port Augusta
Date/Time
CST
Wind Sea
Height
m
Swell Vis
km
Cloud Weather Temp
°C
Press
MSL
hPa
Rain since
9am
mm
Dir  Spd
kts
Gust
kts
Height
m
Period
s
Dir
28/12:00pm NNW 10 15 - - - - 10 Clear - 15.5 1029.3 0.0
28/11:30am N 9 11 - - - - 10 - - 14.9 1029.8 0.0
28/11:00am NNW 6 8 - - - - 10 - - 13.5 1030.3 0.0
28/10:30am NW 7 9 - - - - 10 - - 11.6 1030.9 0.0
28/10:00am NNW 6 7 - - - - 10 - - 10.5 1031.1 0.0
28/09:30am NNW 4 5 - - - - 10 - - 9.2 1031.1 0.0
28/09:00am NNW 3 5 - - - - 10 - - 6.1 1030.8 0.0
28/08:30am NNW 4 5 - - - - 10 - - 3.4 1030.8 0.0
28/08:00am NNW 7 7 - - - - 10 - - 0.0 1030.6 0.0
28/07:30am W 5 6 - - - - 10 - - -0.7 1030.2 0.0
28/07:00am WSW 4 5 - - - - 10 - - -0.4 1029.7 0.0
28/06:30am W 4 5 - - - - 10 - - -1.0 1029.4 0.0
28/06:00am NW 4 5 - - - - 10 - - -0.8 1029.5 0.0
28/05:30am NW 2 3 - - - - 10 - - -1.6 1029.5 0.0
28/05:00am NW 4 5 - - - - 10 - - 0.7 1029.3 0.0
28/04:30am NW 4 6 - - - - 10 - - 1.1 1029.3 0.0
28/04:00am WNW 4 5 - - - - 10 - - 0.7 1029.4 0.0
28/03:30am WSW 6 7 - - - - 10 - - 0.7 1029.3 0.0
28/03:00am SW 4 5 - - - - 10 - - 1.3 1029.4 0.0
28/02:30am WSW 3 4 - - - - 10 - - 1.5 1029.9 0.0
28/02:00am CALM 0 0 - - - - 10 - - 2.7 1030.1 0.0
28/01:30am SW 5 6 - - - - 10 - - 2.7 1030.2 0.0
28/01:00am WSW 5 6 - - - - 10 - - 2.6 1030.5 0.0
28/12:30am WSW 5 7 - - - - 10 - - 2.8 1030.9 0.0
28/12:00am SSE 3 5 - - - - 10 - - 3.9 1031.0 0.0
 
Date/Time
CST
Wind Sea
Height
m
Swell Vis
km
Cloud Weather Temp
°C
Press
MSL
hPa
Rain since
9am
mm
Dir  Spd
kts
Gust
kts
Height
m
Period
s
Dir
27/11:30pm SE 3 4 - - - - 10 - - 6.5 1031.2 0.0
27/11:00pm SE 3 4 - - - - 10 - - 7.3 1031.6 0.0
27/10:30pm SE 6 7 - - - - 10 - - 8.4 1031.8 0.0
27/10:00pm ESE 7 9 - - - - 10 - - 9.8 1032.0 0.0
27/09:30pm ESE 7 9 - - - - 10 - - 8.8 1032.2 0.0
27/09:00pm S 3 4 - - - - 10 - - 4.9 1032.2 0.0
27/08:30pm SE 2 3 - - - - 10 - - 6.7 1032.5 0.0
27/08:00pm SE 2 3 - - - - 10 - - 8.4 1032.4 0.0
27/07:30pm SE 4 6 - - - - 10 - - 8.6 1032.4 0.0
27/07:00pm SE 7 8 - - - - 10 - - 11.4 1032.2 0.0
27/06:30pm SSE 6 7 - - - - 10 - - 11.3 1032.0 0.0
27/06:00pm SE 7 9 - - - - 10 - - 12.1 1031.8 0.0
27/05:30pm SE 4 10 - - - - 10 - - 13.7 1031.5 0.0
27/05:00pm SE 5 6 - - - - 10 - - 15.4 1031.3 0.0
27/04:30pm ESE 4 6 - - - - 10 - - 16.5 1031.3 0.0
27/04:00pm ESE 3 5 - - - - 10 - - 17.2 1031.4 0.0
27/03:30pm NNW 4 6 - - - - 10 - - 17.2 1031.5 0.0
27/03:00pm ESE 3 4 - - - - 10 - - 16.9 1031.9 0.0
27/02:30pm N 6 8 - - - - 10 - - 16.8 1032.1 0.0
27/02:00pm NNE 6 9 - - - - 10 - - 16.5 1032.3 0.0
27/01:30pm ENE 5 8 - - - - 10 - - 16.2 1032.7 0.0
27/01:00pm ENE 7 9 - - - - 10 - - 15.6 1033.3 0.0
27/12:30pm NE 5 8 - - - - 10 - - 15.1 1033.9 0.0
27/12:00pm N 6 11 - - - - 10 - - 15.0 1034.4 0.0
27/11:30am N 5 9 - - - - 10 - - 15.1 1034.7 0.0
27/11:00am NNE 5 8 - - - - 10 - - 14.4 1035.0 0.0
27/10:30am E 6 8 - - - - 10 - - 13.7 1035.1 0.0
27/10:00am ENE 5 9 - - - - 10 - - 13.0 1035.4 0.0
27/09:30am E 4 6 - - - - 10 - - 11.5 1035.2 0.0
27/09:00am ESE 5 7 - - - - 10 - - 10.3 1035.1 0.2
27/08:30am E 3 6 - - - - 10 - - 9.4 1034.8 0.2
27/08:00am ESE 6 8 - - - - 10 - - 8.2 1034.5 0.2
27/07:30am ESE 5 8 - - - - 10 - - 6.0 1034.1 0.2
27/07:00am SSE 8 9 - - - - 10 - - 7.1 1033.7 0.2
27/06:30am SE 6 7 - - - - 10 - - 6.3 1033.4 0.2
27/06:00am SSE 7 8 - - - - 10 - - 7.3 1033.1 0.2
27/05:30am SSE 8 9 - - - - 10 - - 7.0 1033.0 0.2
27/05:00am SE 5 6 - - - - 10 - - 5.7 1033.0 0.2
27/04:40am ESE 7 8 - - - - 10 - - 6.4 1032.8 0.2
27/04:30am ESE 7 8 - - - - 5 - - 6.6 1032.6 0.2
27/04:02am SE 4 5 - - - - 4 - - 4.7 1032.5 0.2
27/04:00am SSE 4 5 - - - - 10 - - 4.9 1032.4 0.2
27/03:30am SSE 5 6 - - - - 10 - - 6.7 1032.7 0.2
27/03:00am SE 2 3 - - - - 10 - - 8.1 1032.8 0.2
27/02:30am SE 2 3 - - - - 10 - - 8.3 1032.9 0.2
27/02:00am SSE 3 5 - - - - 10 - - 7.9 1032.9 0.2
27/01:30am SSE 6 8 - - - - 10 - - 9.4 1032.7 0.0
27/01:00am SE 2 3 - - - - 10 - - 9.9 1032.6 0.0
27/12:30am SE 4 7 - - - - 10 - - 10.2 1032.5 0.0
27/12:00am SSW 5 7 - - - - 10 - - 8.9 1032.5 0.0
 
Date/Time
CST
Wind Sea
Height
m
Swell Vis
km
Cloud Weather Temp
°C
Press
MSL
hPa
Rain since
9am
mm
Dir  Spd
kts
Gust
kts
Height
m
Period
s
Dir
26/11:30pm SSW 4 5 - - - - 10 - - 10.2 1032.5 0.0
26/11:00pm SSE 5 7 - - - - 10 Partly cloudy - 11.2 1032.4 0.0
26/10:49pm SSE 6 7 - - - - 10 Partly cloudy - 11.5 1032.4 0.0
26/10:42pm SE 6 7 - - - - 10 Partly cloudy - 11.7 1032.4 0.0
26/10:30pm SE 6 8 - - - - 5 Partly cloudy - 12.0 1032.5 0.0
26/10:27pm SSE 6 8 - - - - 5 Partly cloudy - 12.0 1032.5 0.0
26/10:20pm SSE 5 7 - - - - 10 Partly cloudy - 12.4 1032.5 0.0
26/10:00pm ESE 3 5 - - - - 10 Partly cloudy - 12.3 1032.4 0.0
26/09:30pm NE 3 5 - - - - 10 Partly cloudy - 11.3 1032.0 0.0
26/09:00pm SSE 6 8 - - - - 10 Mostly cloudy - 12.3 1031.7 0.0
26/08:30pm CALM 0 0 - - - - 10 Partly cloudy - 11.3 1031.8 0.0
26/08:00pm SE 6 8 - - - - 10 - - 12.4 1031.7 0.0
26/07:30pm SE 8 10 - - - - 10 - - 12.4 1031.3 0.0
26/07:00pm SSE 10 13 - - - - 10 - - 12.6 1030.8 0.0
26/06:30pm SSE 11 13 - - - - 10 - - 12.9 1030.4 0.0
26/06:00pm SSE 10 12 - - - - 10 - - 13.0 1029.9 0.0
26/05:30pm SSE 11 13 - - - - 10 - - 13.6 1029.4 0.0
26/05:00pm SSE 13 18 - - - - 10 - - 14.5 1029.0 0.0
26/04:30pm SSE 14 17 - - - - 10 - - 15.2 1028.7 0.0
26/04:00pm SSE 13 17 - - - - 10 - - 15.5 1028.4 0.0
26/03:30pm SSE 14 17 - - - - 10 Partly cloudy - 16.4 1028.3 0.0
26/03:00pm SE 12 16 - - - - 10 Mostly clear - 16.8 1028.1 0.0
26/02:30pm SE 11 15 - - - - 10 Partly cloudy - 16.7 1028.1 0.0
26/02:00pm SE 9 14 - - - - 10 - - 17.3 1028.0 0.0
26/01:30pm SE 8 12 - - - - 10 - - 17.4 1028.2 0.0
26/01:00pm ESE 9 13 - - - - 10 - - 17.2 1028.4 0.0
26/12:30pm SE 7 10 - - - - 10 Partly cloudy - 16.1 1028.6 0.0
26/12:00pm ESE 6 9 - - - - 10 Partly cloudy - 16.9 1029.3 0.0
26/11:30am SE 7 9 - - - - 10 - - 16.1 1029.9 0.0
26/11:00am S 6 9 - - - - 10 Partly cloudy - 15.9 1029.8 0.0
26/10:30am S 9 12 - - - - 10 Partly cloudy - 16.1 1030.0 0.0
26/10:00am SSW 1 5 - - - - 10 - - 14.5 1030.1 0.0
26/09:30am SE 3 4 - - - - 10 - - 13.3 1029.9 0.0
26/09:00am SSW 3 4 - - - - 10 Mostly clear - 12.2 1029.7 0.2
26/08:30am SW 4 6 - - - - 10 - - 10.7 1029.2 0.2
26/08:00am SW 5 6 - - - - 10 - - 7.0 1028.8 0.2
26/07:30am WSW 5 5 - - - - 10 - - 6.4 1028.3 0.2
26/07:00am CALM 0 0 - - - - 10 - - 8.4 1028.1 0.2
26/06:30am S 4 5 - - - - 10 - - 9.1 1027.8 0.2
26/06:00am SSE 4 5 - - - - 10 - - 8.4 1027.5 0.2
26/05:30am SSW 9 11 - - - - 10 - - 9.5 1027.2 0.2
26/05:00am SSW 7 9 - - - - 10 - - 7.6 1026.9 0.2
26/04:30am SSW 5 7 - - - - 10 Partly cloudy - 7.1 1026.9 0.2
26/04:00am N 5 6 - - - - 10 - - 7.6 1026.7 0.2
26/03:30am N 5 6 - - - - 10 Partly cloudy - 8.0 1026.6 0.2
26/03:00am N 5 6 - - - - 10 Mostly cloudy - 8.1 1026.3 0.2
26/02:30am N 5 7 - - - - 10 Cloudy - 8.6 1026.4 0.2
26/02:00am NNW 5 5 - - - - 10 Cloudy - 8.7 1026.4 0.2
26/01:30am NNW 5 6 - - - - 10 Cloudy - 8.6 1026.3 0.2
26/01:00am ENE 2 6 - - - - 10 Cloudy - 8.2 1026.2 0.2
26/12:30am SW 3 5 - - - - 10 Partly cloudy - 8.2 1026.1 0.2
26/12:00am SW 5 6 - - - - 10 Partly cloudy - 7.7 1026.0 0.2
 
Date/Time
CST
Wind Sea
Height
m
Swell Vis
km
Cloud Weather Temp
°C
Press
MSL
hPa
Rain since
9am
mm
Dir  Spd
kts
Gust
kts
Height
m
Period
s
Dir
25/11:30pm SW 7 9 - - - - 10 Partly cloudy - 7.3 1026.2 0.2
25/11:00pm WSW 6 7 - - - - 10 - - 7.4 1026.1 0.2
25/10:30pm WSW 6 7 - - - - 10 Partly cloudy - 8.2 1026.0 0.2
25/10:00pm WSW 7 7 - - - - 10 Partly cloudy - 8.7 1026.0 0.2
25/09:30pm WSW 6 8 - - - - 10 Partly cloudy - 7.5 1025.9 0.2
25/09:00pm WSW 5 6 - - - - 10 - - 6.8 1025.6 0.2
25/08:30pm WSW 5 5 - - - - 10 - - 7.9 1025.2 0.2
25/08:00pm S 3 5 - - - - 10 - - 8.3 1025.1 0.2
25/07:30pm SE 3 3 - - - - 10 Partly cloudy - 9.8 1024.7 0.2
25/07:00pm SE 6 6 - - - - 10 - - 11.6 1024.4 0.2
25/06:30pm SE 6 7 - - - - 10 - - 12.3 1024.3 0.2
25/06:00pm SE 6 7 - - - - 10 - - 13.2 1023.9 0.2
25/05:30pm SSE 7 8 - - - - 10 Partly cloudy - 13.9 1023.6 0.2
25/05:00pm SSE 10 13 - - - - 10 Partly cloudy - 15.1 1023.5 0.2
25/04:30pm SSE 12 15 - - - - 10 Partly cloudy - 16.0 1023.4 0.2
25/04:00pm SE 9 11 - - - - 10 Partly cloudy - 16.2 1023.1 0.2
25/03:30pm SE 9 12 - - - - 10 Partly cloudy - 16.3 1023.0 0.2
25/03:00pm S 5 8 - - - - 10 Mostly cloudy - 17.6 1023.0 0.2
25/02:30pm ESE 5 9 - - - - 10 Partly cloudy - 17.7 1022.9 0.2
25/02:00pm SW 7 11 - - - - 10 - - 17.8 1022.9 0.2
25/01:30pm SW 9 13 - - - - 10 - - 17.6 1023.2 0.2
25/01:00pm SW 7 13 - - - - 10 - - 17.2 1023.6 0.0
25/12:30pm SW 7 13 - - - - 10 Partly cloudy - 16.8 1023.9 0.0

Other formats

Comma delimited format used in spreadsheet applications
http://www.bom.gov.au/fwo/IDS60701/IDS60701.95666.axf

JavaScript Object Notation format (JSON) in row-major order
http://www.bom.gov.au/fwo/IDS60701/IDS60701.95666.json

Data quality

Most of these data are generated automatically and are frequently updated. Quality checks on data are not normally performed. It is possible for incorrect values to appear. Refer to information at About Latest Weather Observations and please check the disclaimer before using these data.